sensor_id;sensor_type;location;lat;lon;timestamp;temperature;humidity
16976;DHT22;8604;48.148;-1.786;2022-10-31T00:01:25;12.80;99.90
16976;DHT22;8604;48.148;-1.786;2022-10-31T00:03:54;12.70;99.90
16976;DHT22;8604;48.148;-1.786;2022-10-31T00:06:44;12.70;99.90
16976;DHT22;8604;48.148;-1.786;2022-10-31T00:09:53;12.70;99.90
16976;DHT22;8604;48.148;-1.786;2022-10-31T00:20:18;12.60;99.90
16976;DHT22;8604;48.148;-1.786;2022-10-31T00:24:16;12.60;99.90
16976;DHT22;8604;48.148;-1.786;2022-10-31T00:27:33;12.60;99.90
16976;DHT22;8604;48.148;-1.786;2022-10-31T00:31:00;12.60;99.90
16976;DHT22;8604;48.148;-1.786;2022-10-31T00:34:29;12.60;99.90
16976;DHT22;8604;48.148;-1.786;2022-10-31T00:38:09;12.60;99.90
16976;DHT22;8604;48.148;-1.786;2022-10-31T00:41:43;12.50;99.90
16976;DHT22;8604;48.148;-1.786;2022-10-31T00:45:26;12.50;99.90
16976;DHT22;8604;48.148;-1.786;2022-10-31T00:48:41;12.50;99.90
16976;DHT22;8604;48.148;-1.786;2022-10-31T00:51:37;12.50;99.90
16976;DHT22;8604;48.148;-1.786;2022-10-31T00:54:44;12.50;99.90
16976;DHT22;8604;48.148;-1.786;2022-10-31T00:58:01;12.50;99.90
16976;DHT22;8604;48.148;-1.786;2022-10-31T01:01:00;12.40;99.90
16976;DHT22;8604;48.148;-1.786;2022-10-31T01:05:06;12.50;99.90
16976;DHT22;8604;48.148;-1.786;2022-10-31T01:08:06;12.50;99.90
16976;DHT22;8604;48.148;-1.786;2022-10-31T01:11:14;12.50;99.90
16976;DHT22;8604;48.148;-1.786;2022-10-31T01:13:57;12.50;99.90
16976;DHT22;8604;48.148;-1.786;2022-10-31T01:16:34;12.50;99.90
16976;DHT22;8604;48.148;-1.786;2022-10-31T01:19:10;12.50;99.90
16976;DHT22;8604;48.148;-1.786;2022-10-31T01:21:55;12.60;99.90
16976;DHT22;8604;48.148;-1.786;2022-10-31T01:24:58;12.50;99.90
16976;DHT22;8604;48.148;-1.786;2022-10-31T01:27:56;12.60;99.90
16976;DHT22;8604;48.148;-1.786;2022-10-31T01:30:35;12.60;99.90
16976;DHT22;8604;48.148;-1.786;2022-10-31T01:33:39;12.60;99.90
16976;DHT22;8604;48.148;-1.786;2022-10-31T01:36:45;12.60;99.90
16976;DHT22;8604;48.148;-1.786;2022-10-31T01:39:32;12.60;99.90
16976;DHT22;8604;48.148;-1.786;2022-10-31T01:42:23;12.60;99.90
16976;DHT22;8604;48.148;-1.786;2022-10-31T01:45:34;12.50;99.90
16976;DHT22;8604;48.148;-1.786;2022-10-31T01:49:27;12.50;99.90
16976;DHT22;8604;48.148;-1.786;2022-10-31T01:53:32;12.40;99.90
16976;DHT22;8604;48.148;-1.786;2022-10-31T01:56:32;12.40;99.90
16976;DHT22;8604;48.148;-1.786;2022-10-31T01:59:25;12.30;99.90
16976;DHT22;8604;48.148;-1.786;2022-10-31T02:02:28;12.30;99.90
16976;DHT22;8604;48.148;-1.786;2022-10-31T02:05:46;12.20;99.90
16976;DHT22;8604;48.148;-1.786;2022-10-31T02:08:18;12.20;99.90
16976;DHT22;8604;48.148;-1.786;2022-10-31T02:10:50;12.20;99.90
16976;DHT22;8604;48.148;-1.786;2022-10-31T02:13:23;12.10;99.90
16976;DHT22;8604;48.148;-1.786;2022-10-31T02:15:59;12.10;99.90
16976;DHT22;8604;48.148;-1.786;2022-10-31T02:18:38;12.10;99.90
16976;DHT22;8604;48.148;-1.786;2022-10-31T02:21:22;12.00;99.90
16976;DHT22;8604;48.148;-1.786;2022-10-31T02:24:33;12.10;99.90
16976;DHT22;8604;48.148;-1.786;2022-10-31T02:30:22;12.00;99.90
16976;DHT22;8604;48.148;-1.786;2022-10-31T02:33:05;12.00;99.90
16976;DHT22;8604;48.148;-1.786;2022-10-31T02:35:50;12.00;99.90
16976;DHT22;8604;48.148;-1.786;2022-10-31T02:38:28;12.00;99.90
16976;DHT22;8604;48.148;-1.786;2022-10-31T02:41:24;12.00;99.90
16976;DHT22;8604;48.148;-1.786;2022-10-31T02:44:39;12.00;99.90
16976;DHT22;8604;48.148;-1.786;2022-10-31T02:48:12;12.00;99.90
16976;DHT22;8604;48.148;-1.786;2022-10-31T02:50:59;12.00;99.90
16976;DHT22;8604;48.148;-1.786;2022-10-31T02:54:58;12.00;99.90
16976;DHT22;8604;48.148;-1.786;2022-10-31T02:59:33;12.00;99.90
16976;DHT22;8604;48.148;-1.786;2022-10-31T03:02:08;12.00;99.90
16976;DHT22;8604;48.148;-1.786;2022-10-31T03:05:38;12.00;99.90
16976;DHT22;8604;48.148;-1.786;2022-10-31T03:08:16;12.10;99.90
16976;DHT22;8604;48.148;-1.786;2022-10-31T03:10:52;12.00;99.90
16976;DHT22;8604;48.148;-1.786;2022-10-31T03:13:32;12.00;99.90
16976;DHT22;8604;48.148;-1.786;2022-10-31T03:16:31;12.00;99.90
16976;DHT22;8604;48.148;-1.786;2022-10-31T03:20:10;12.00;99.90
16976;DHT22;8604;48.148;-1.786;2022-10-31T03:23:35;12.00;99.90
16976;DHT22;8604;48.148;-1.786;2022-10-31T03:26:57;12.00;99.90
16976;DHT22;8604;48.148;-1.786;2022-10-31T03:29:35;12.00;99.90
16976;DHT22;8604;48.148;-1.786;2022-10-31T03:32:50;12.00;99.90
16976;DHT22;8604;48.148;-1.786;2022-10-31T03:36:12;12.00;99.90
16976;DHT22;8604;48.148;-1.786;2022-10-31T03:43:54;12.00;99.90
16976;DHT22;8604;48.148;-1.786;2022-10-31T03:46:38;12.00;99.90
16976;DHT22;8604;48.148;-1.786;2022-10-31T03:49:07;12.00;99.90
16976;DHT22;8604;48.148;-1.786;2022-10-31T03:51:40;12.00;99.90
16976;DHT22;8604;48.148;-1.786;2022-10-31T03:54:15;12.00;99.90
16976;DHT22;8604;48.148;-1.786;2022-10-31T03:56:59;12.00;99.90
16976;DHT22;8604;48.148;-1.786;2022-10-31T03:59:34;12.00;99.90
16976;DHT22;8604;48.148;-1.786;2022-10-31T04:02:07;12.00;99.90
16976;DHT22;8604;48.148;-1.786;2022-10-31T04:04:40;12.10;99.90
16976;DHT22;8604;48.148;-1.786;2022-10-31T04:07:21;12.10;99.90
16976;DHT22;8604;48.148;-1.786;2022-10-31T04:10:24;12.10;99.90
16976;DHT22;8604;48.148;-1.786;2022-10-31T04:13:02;12.10;99.90
16976;DHT22;8604;48.148;-1.786;2022-10-31T04:16:00;12.10;99.90
16976;DHT22;8604;48.148;-1.786;2022-10-31T04:21:17;12.10;99.90
16976;DHT22;8604;48.148;-1.786;2022-10-31T04:23:48;12.10;99.90
16976;DHT22;8604;48.148;-1.786;2022-10-31T04:26:24;12.10;99.90
16976;DHT22;8604;48.148;-1.786;2022-10-31T04:28:52;12.10;99.90
16976;DHT22;8604;48.148;-1.786;2022-10-31T04:32:13;12.10;99.90
16976;DHT22;8604;48.148;-1.786;2022-10-31T04:35:35;12.20;99.90
16976;DHT22;8604;48.148;-1.786;2022-10-31T04:39:24;12.20;99.90
16976;DHT22;8604;48.148;-1.786;2022-10-31T04:46:37;12.30;99.90
16976;DHT22;8604;48.148;-1.786;2022-10-31T04:49:39;12.40;99.90
16976;DHT22;8604;48.148;-1.786;2022-10-31T04:55:36;12.40;99.90
16976;DHT22;8604;48.148;-1.786;2022-10-31T04:59:14;12.40;99.90
16976;DHT22;8604;48.148;-1.786;2022-10-31T05:03:27;12.40;99.90
16976;DHT22;8604;48.148;-1.786;2022-10-31T05:11:43;12.50;99.90
16976;DHT22;8604;48.148;-1.786;2022-10-31T05:15:26;12.50;99.90
16976;DHT22;8604;48.148;-1.786;2022-10-31T05:18:55;12.50;99.90
16976;DHT22;8604;48.148;-1.786;2022-10-31T05:22:51;12.40;99.90
16976;DHT22;8604;48.148;-1.786;2022-10-31T05:26:20;12.50;99.90
16976;DHT22;8604;48.148;-1.786;2022-10-31T05:30:26;12.50;99.90
16976;DHT22;8604;48.148;-1.786;2022-10-31T05:34:02;12.50;99.90
16976;DHT22;8604;48.148;-1.786;2022-10-31T05:38:21;12.50;99.90
16976;DHT22;8604;48.148;-1.786;2022-10-31T05:41:40;12.50;99.90
16976;DHT22;8604;48.148;-1.786;2022-10-31T05:45:10;12.40;99.90
16976;DHT22;8604;48.148;-1.786;2022-10-31T05:47:58;12.40;99.90
16976;DHT22;8604;48.148;-1.786;2022-10-31T05:50:47;12.50;99.90
16976;DHT22;8604;48.148;-1.786;2022-10-31T05:53:19;12.40;99.90
16976;DHT22;8604;48.148;-1.786;2022-10-31T05:55:54;12.50;99.90
16976;DHT22;8604;48.148;-1.786;2022-10-31T05:58:25;12.40;99.90
16976;DHT22;8604;48.148;-1.786;2022-10-31T06:01:03;12.40;99.90
16976;DHT22;8604;48.148;-1.786;2022-10-31T06:03:34;12.40;99.90
16976;DHT22;8604;48.148;-1.786;2022-10-31T06:06:05;12.30;99.90
16976;DHT22;8604;48.148;-1.786;2022-10-31T06:08:37;12.20;99.90
16976;DHT22;8604;48.148;-1.786;2022-10-31T06:11:23;12.30;99.90
16976;DHT22;8604;48.148;-1.786;2022-10-31T06:14:04;12.30;99.90
16976;DHT22;8604;48.148;-1.786;2022-10-31T06:16:45;12.20;99.90
16976;DHT22;8604;48.148;-1.786;2022-10-31T06:19:36;12.30;99.90
16976;DHT22;8604;48.148;-1.786;2022-10-31T06:22:04;12.30;99.90
16976;DHT22;8604;48.148;-1.786;2022-10-31T06:24:33;12.40;99.90
16976;DHT22;8604;48.148;-1.786;2022-10-31T06:27:37;12.40;99.90
16976;DHT22;8604;48.148;-1.786;2022-10-31T06:30:12;12.40;99.90
16976;DHT22;8604;48.148;-1.786;2022-10-31T06:32:42;12.40;99.90
16976;DHT22;8604;48.148;-1.786;2022-10-31T06:35:12;12.40;99.90
16976;DHT22;8604;48.148;-1.786;2022-10-31T06:37:41;12.40;99.90
16976;DHT22;8604;48.148;-1.786;2022-10-31T06:40:27;12.40;99.90
16976;DHT22;8604;48.148;-1.786;2022-10-31T06:43:22;12.30;99.90
16976;DHT22;8604;48.148;-1.786;2022-10-31T22:30:47;12.20;99.90
16976;DHT22;8604;48.148;-1.786;2022-10-31T22:33:15;12.20;99.90
16976;DHT22;8604;48.148;-1.786;2022-10-31T22:35:44;12.20;99.90
16976;DHT22;8604;48.148;-1.786;2022-10-31T22:38:12;12.10;99.90
16976;DHT22;8604;48.148;-1.786;2022-10-31T22:40:40;12.10;99.90
16976;DHT22;8604;48.148;-1.786;2022-10-31T22:43:09;12.10;99.90
16976;DHT22;8604;48.148;-1.786;2022-10-31T22:45:37;12.10;99.90
16976;DHT22;8604;48.148;-1.786;2022-10-31T22:48:07;12.00;99.90
16976;DHT22;8604;48.148;-1.786;2022-10-31T22:50:35;12.00;99.90
16976;DHT22;8604;48.148;-1.786;2022-10-31T22:53:04;12.00;99.90
16976;DHT22;8604;48.148;-1.786;2022-10-31T22:55:33;12.00;99.90
16976;DHT22;8604;48.148;-1.786;2022-10-31T22:58:04;12.00;99.90
16976;DHT22;8604;48.148;-1.786;2022-10-31T23:00:32;12.00;99.90
16976;DHT22;8604;48.148;-1.786;2022-10-31T23:03:01;11.90;99.90
16976;DHT22;8604;48.148;-1.786;2022-10-31T23:05:31;11.90;99.90
16976;DHT22;8604;48.148;-1.786;2022-10-31T23:08:00;11.90;99.90
16976;DHT22;8604;48.148;-1.786;2022-10-31T23:10:31;11.90;99.90
16976;DHT22;8604;48.148;-1.786;2022-10-31T23:13:00;11.90;99.90
16976;DHT22;8604;48.148;-1.786;2022-10-31T23:15:46;11.90;99.90
16976;DHT22;8604;48.148;-1.786;2022-10-31T23:18:14;11.80;99.90
16976;DHT22;8604;48.148;-1.786;2022-10-31T23:21:06;11.80;99.90
16976;DHT22;8604;48.148;-1.786;2022-10-31T23:23:36;11.80;99.90
16976;DHT22;8604;48.148;-1.786;2022-10-31T23:26:04;11.80;99.90
16976;DHT22;8604;48.148;-1.786;2022-10-31T23:28:50;11.80;99.90
16976;DHT22;8604;48.148;-1.786;2022-10-31T23:31:19;11.70;99.90
16976;DHT22;8604;48.148;-1.786;2022-10-31T23:33:47;11.70;99.90
16976;DHT22;8604;48.148;-1.786;2022-10-31T23:36:17;11.70;99.90
16976;DHT22;8604;48.148;-1.786;2022-10-31T23:38:45;11.70;99.90
16976;DHT22;8604;48.148;-1.786;2022-10-31T23:41:16;11.60;99.90
16976;DHT22;8604;48.148;-1.786;2022-10-31T23:43:45;11.60;99.90
16976;DHT22;8604;48.148;-1.786;2022-10-31T23:46:14;11.60;99.90
16976;DHT22;8604;48.148;-1.786;2022-10-31T23:48:43;11.50;99.90
16976;DHT22;8604;48.148;-1.786;2022-10-31T23:51:14;11.50;99.90
16976;DHT22;8604;48.148;-1.786;2022-10-31T23:53:44;11.50;99.90
16976;DHT22;8604;48.148;-1.786;2022-10-31T23:56:13;11.50;99.90
16976;DHT22;8604;48.148;-1.786;2022-10-31T23:58:41;11.50;99.90
